Time;durP1;ratioP1;P1;durP2;ratioP2;P2;SDS_P1;SDS_P2;PMS_P1;PMS_P2;Temp;Humidity;BMP_temperature;BMP_pressure;BME280_temperature;BME280_humidity;BME280_pressure;Samples;Min_cycle;Max_cycle;Signal;HPM_P1;HPM_P2
2022/09/11 00:01:48;;;;;;;;;;;;;;;;;;4997366;28;20021;-88
2022/09/11 00:04:13;;;;;;;;;;;;;;;;;;5000228;28;19967;-93
2022/09/11 00:06:39;;;;;;;;;;;;;;;;;;4965044;28;20362;-94
2022/09/11 00:09:05;;;;;;;;;;;;;;;;;;4974107;28;19922;-95
2022/09/11 00:11:31;;;;;;;;;;;;;;;;;;4981910;28;19919;-95
2022/09/11 00:13:57;;;;;;;;;;;;;;;;;;4965167;28;19913;-92
2022/09/11 00:16:22;;;;;;;;;;;;;;;;;;4969551;28;19909;-91
2022/09/11 00:18:48;;;;;;;;;;;;;;;;;;4970885;28;20392;-90
2022/09/11 00:21:13;;;;;;;;;;;;;;;;;;4971172;28;19924;-93
2022/09/11 00:23:39;;;;;;;;;;;;;;;;;;4978273;28;19933;-93
2022/09/11 00:26:05;;;;;;;;;;;;;;;;;;4978799;28;20359;-93
2022/09/11 00:28:30;;;;;;;;;;;;;;;;;;4979930;28;19922;-92
2022/09/11 00:30:55;;;;;;;;;;;;;;;;;;4981748;28;19905;-93
2022/09/11 00:33:21;;;;;;;;;;;;;;;;;;4980627;28;20118;-93
2022/09/11 00:35:47;;;;;;;;;;;;;;;;;;4984033;28;19944;-93
2022/09/11 00:38:12;;;;;;;;;;;;;;;;;;4984064;28;19925;-94
2022/09/11 00:40:38;;;;;;;;;;;;;;;;;;4984892;28;19977;-93
2022/09/11 00:43:03;;;;;;;;;;;;;;;;;;4985312;28;19902;-91
2022/09/11 00:45:28;;;;;;;;;;;;;;;;;;4982062;28;19902;-93
2022/09/11 00:47:54;;;;;;;;;;;;;;;;;;4981846;28;19924;-92
2022/09/11 00:50:19;;;;;;;;;;;;;;;;;;4979549;28;19951;-90
2022/09/11 00:52:45;;;;;;;;;;;;;;;;;;4970108;28;19914;-91
2022/09/11 00:55:13;;;;;;;;;;;;;;;;;;4974012;28;19937;-93
2022/09/11 00:57:38;;;;;;;;;;;;;;;;;;4963319;28;20049;-92
2022/09/11 01:00:04;;;;;;;;;;;;;;;;;;4967874;28;20417;-91
2022/09/11 01:02:29;;;;;;;;;;;;;;;;;;4966839;28;20285;-91
2022/09/11 01:04:55;;;;;;;;;;;;;;;;;;4968344;28;20373;-92
2022/09/11 01:07:21;;;;;;;;;;;;;;;;;;4965740;28;19972;-93
2022/09/11 01:09:46;;;;;;;;;;;;;;;;;;4966460;28;20322;-93
2022/09/11 01:12:11;;;;;;;;;;;;;;;;;;4978262;28;19914;-93
2022/09/11 01:14:37;;;;;;;;;;;;;;;;;;4965513;28;20289;-93
2022/09/11 01:17:04;;;;;;;;;;;;;;;;;;4971970;28;19913;-89
2022/09/11 01:19:29;;;;;;;;;;;;;;;;;;4982746;28;19898;-91
2022/09/11 01:21:55;;;;;;;;;;;;;;;;;;4988998;28;19918;-91
2022/09/11 01:24:23;;;;;;;;;;;;;;;;;;4987334;28;19914;-89
2022/09/11 01:26:48;;;;;;;;;;;;;;;;;;4970617;28;19942;-89
2022/09/11 01:29:14;;;;;;;;;;;;;;;;;;4966465;28;19969;-90
2022/09/11 01:31:40;;;;;;;;;;;;;;;;;;4958751;28;19957;-90
2022/09/11 01:34:05;;;;;;;;;;;;;;;;;;4965929;28;19910;-91
2022/09/11 01:36:31;;;;;;;;;;;;;;;;;;4962347;28;19914;-93
2022/09/11 01:38:56;;;;;;;;;;;;;;;;;;4964305;28;19949;-94
2022/09/11 01:41:21;;;;;;;;;;;;;;;;;;4964532;28;19914;-92
2022/09/11 01:43:47;;;;;;;;;;;;;;;;;;4964832;28;19941;-93
2022/09/11 01:46:13;;;;;;;;;;;;;;;;;;4964470;28;20391;-92
2022/09/11 01:48:38;;;;;;;;;;;;;;;;;;4964187;28;19917;-94
2022/09/11 01:51:03;;;;;;;;;;;;;;;;;;4964362;28;19917;-92
2022/09/11 01:53:29;;;;;;;;;;;;;;;;;;4968221;28;20353;-93
2022/09/11 01:55:54;;;;;;;;;;;;;;;;;;4976597;28;19977;-92
2022/09/11 01:58:23;;;;;;;;;;;;;;;;;;4977221;28;19913;-93
2022/09/11 02:00:48;;;;;;;;;;;;;;;;;;4977045;28;20544;-92
2022/09/11 02:03:14;;;;;;;;;;;;;;;;;;4974435;28;20353;-94
2022/09/11 02:05:39;;;;;;;;;;;;;;;;;;4971880;28;19953;-92
2022/09/11 02:08:05;;;;;;;;;;;;;;;;;;4972614;28;20396;-90
2022/09/11 02:10:30;;;;;;;;;;;;;;;;;;4962364;28;19921;-90
2022/09/11 02:12:57;;;;;;;;;;;;;;;;;;4977710;28;19923;-90
2022/09/11 02:15:22;;;;;;;;;;;;;;;;;;4943703;28;20024;-91
2022/09/11 02:17:47;;;;;;;;;;;;;;;;;;4943640;28;20077;-92
2022/09/11 02:20:13;;;;;;;;;;;;;;;;;;4943596;28;20397;-90
2022/09/11 02:22:39;;;;;;;;;;;;;;;;;;4959074;28;19921;-91
2022/09/11 02:25:04;;;;;;;;;;;;;;;;;;4943197;28;20270;-90
2022/09/11 02:27:30;;;;;;;;;;;;;;;;;;4946298;28;19921;-89
2022/09/11 02:29:56;;;;;;;;;;;;;;;;;;4961031;28;20024;-88
2022/09/11 02:32:23;;;;;;;;;;;;;;;;;;4959884;28;19942;-89
2022/09/11 02:34:49;;;;;;;;;;;;;;;;;;4975175;28;20352;-92
2022/09/11 02:37:15;;;;;;;;;;;;;;;;;;4943331;28;19937;-91
2022/09/11 02:39:40;;;;;;;;;;;;;;;;;;4943545;28;20361;-93
2022/09/11 02:42:07;;;;;;;;;;;;;;;;;;4946797;28;19964;-92
2022/09/11 02:44:32;;;;;;;;;;;;;;;;;;4958747;28;20294;-92
2022/09/11 02:46:58;;;;;;;;;;;;;;;;;;4944559;28;20374;-94
2022/09/11 02:49:24;;;;;;;;;;;;;;;;;;4944335;28;19921;-92
2022/09/11 02:51:49;;;;;;;;;;;;;;;;;;4947479;28;19921;-89
2022/09/11 02:54:14;;;;;;;;;;;;;;;;;;4951109;28;19937;-92
2022/09/11 02:56:41;;;;;;;;;;;;;;;;;;4952113;28;19964;-92
2022/09/11 02:59:06;;;;;;;;;;;;;;;;;;4959146;28;19925;-92
2022/09/11 03:01:32;;;;;;;;;;;;;;;;;;4965989;28;19914;-91
2022/09/11 03:03:58;;;;;;;;;;;;;;;;;;4966306;28;19925;-93
2022/09/11 03:06:23;;;;;;;;;;;;;;;;;;4961705;28;19937;-92
2022/09/11 03:08:49;;;;;;;;;;;;;;;;;;4958730;28;20412;-92
2022/09/11 03:11:16;;;;;;;;;;;;;;;;;;4958417;28;19924;-94
2022/09/11 03:13:43;;;;;;;;;;;;;;;;;;4958582;28;19921;-93
2022/09/11 03:16:08;;;;;;;;;;;;;;;;;;4956733;28;19914;-94
2022/09/11 03:18:33;;;;;;;;;;;;;;;;;;4961077;28;19960;-90
2022/09/11 03:20:59;;;;;;;;;;;;;;;;;;4961892;28;20435;-93
2022/09/11 03:23:25;;;;;;;;;;;;;;;;;;4962704;28;20369;-91
2022/09/11 03:25:51;;;;;;;;;;;;;;;;;;4964178;28;19913;-92
2022/09/11 03:28:16;;;;;;;;;;;;;;;;;;4968484;28;19910;-92
2022/09/11 03:30:41;;;;;;;;;;;;;;;;;;4962127;28;20102;-89
2022/09/11 03:33:08;;;;;;;;;;;;;;;;;;4960607;28;19918;-93
2022/09/11 03:35:33;;;;;;;;;;;;;;;;;;4961003;28;19920;-90
2022/09/11 03:38:00;;;;;;;;;;;;;;;;;;4960715;28;19957;-89
2022/09/11 03:40:26;;;;;;;;;;;;;;;;;;4968156;28;19921;-90
2022/09/11 03:42:51;;;;;;;;;;;;;;;;;;4961094;28;20052;-90
2022/09/11 03:45:17;;;;;;;;;;;;;;;;;;4959080;28;20361;-90
2022/09/11 03:47:42;;;;;;;;;;;;;;;;;;4976493;28;19914;-89
2022/09/11 03:50:08;;;;;;;;;;;;;;;;;;4963625;28;20004;-91
2022/09/11 03:52:33;;;;;;;;;;;;;;;;;;4963392;28;19913;-91
2022/09/11 03:54:59;;;;;;;;;;;;;;;;;;4977219;28;20009;-92
2022/09/11 03:57:24;;;;;;;;;;;;;;;;;;4967606;28;19921;-96
2022/09/11 03:59:49;;;;;;;;;;;;;;;;;;4972215;28;20278;-92
2022/09/11 04:02:17;;;;;;;;;;;;;;;;;;4968694;28;19913;-96
2022/09/11 04:04:42;;;;;;;;;;;;;;;;;;4961679;28;19913;-90
2022/09/11 04:07:07;;;;;;;;;;;;;;;;;;4958593;28;19925;-94
2022/09/11 04:09:33;;;;;;;;;;;;;;;;;;4961938;28;20004;-94
2022/09/11 04:12:01;;;;;;;;;;;;;;;;;;4960935;28;19996;-86
2022/09/11 04:14:27;;;;;;;;;;;;;;;;;;4991907;28;19961;-85
2022/09/11 04:16:55;;;;;;;;;;;;;;;;;;4991892;28;19933;-84
2022/09/11 04:19:22;;;;;;;;;;;;;;;;;;4991942;28;20332;-85
2022/09/11 04:21:47;;;;;;;;;;;;;;;;;;4992632;28;20385;-91
2022/09/11 04:24:14;;;;;;;;;;;;;;;;;;4961202;28;20464;-90
2022/09/11 04:26:39;;;;;;;;;;;;;;;;;;4961536;28;19949;-92
2022/09/11 04:29:16;;;;;;;;;;;;;;;;;;4980776;28;19968;-90
2022/09/11 04:31:42;;;;;;;;;;;;;;;;;;4963288;28;19918;-90
2022/09/11 04:34:10;;;;;;;;;;;;;;;;;;4978718;28;19917;-89
2022/09/11 04:36:37;;;;;;;;;;;;;;;;;;4979110;28;20021;-93
2022/09/11 04:39:04;;;;;;;;;;;;;;;;;;4946432;28;20057;-91
2022/09/11 04:41:30;;;;;;;;;;;;;;;;;;4945785;28;19950;-87
2022/09/11 04:43:59;;;;;;;;;;;;;;;;;;4945284;28;19925;-90
2022/09/11 04:46:24;;;;;;;;;;;;;;;;;;4945158;28;19920;-91
2022/09/11 04:48:50;;;;;;;;;;;;;;;;;;4950580;28;20350;-91
2022/09/11 04:51:20;;;;;;;;;;;;;;;;;;4980685;28;19918;-92
2022/09/11 04:53:45;;;;;;;;;;;;;;;;;;4991135;28;19913;-93
2022/09/11 04:56:14;;;;;;;;;;;;;;;;;;4968750;28;19936;-92
2022/09/11 04:58:43;;;;;;;;;;;;;;;;;;4971145;28;19914;-92
2022/09/11 05:01:09;;;;;;;;;;;;;;;;;;4988993;28;19925;-95
2022/09/11 05:03:35;;;;;;;;;;;;;;;;;;4987651;28;19925;-95
2022/09/11 05:06:00;;;;;;;;;;;;;;;;;;4985343;28;19930;-95
2022/09/11 05:08:26;;;;;;;;;;;;;;;;;;4981915;28;19973;-95
2022/09/11 05:11:05;;;;;;;;;;;;;;;;;;4971265;29;19926;-89
2022/09/11 05:13:30;;;;;;;;;;;;;;;;;;4995777;28;19914;-96
2022/09/11 05:16:09;;;;;;;;;;;;;;;;;;4978009;28;19910;-95
2022/09/11 05:18:45;;;;;;;;;;;;;;;;;;4995603;28;19918;-93
2022/09/11 05:24:52;;;;;;;;;;;;;;;;;;5001611;23;19925;-82
2022/09/11 05:27:18;;;;;;;;;;;;;;;;;;4962595;28;20124;-82
2022/09/11 05:29:43;;;;;;;;;;;;;;;;;;4969708;28;20001;-85
2022/09/11 05:32:12;;;;;;;;;;;;;;;;;;4990294;28;19953;-87
2022/09/11 05:34:37;;;;;;;;;;;;;;;;;;4981206;28;19917;-87
2022/09/11 05:37:04;;;;;;;;;;;;;;;;;;4970698;28;20001;-90
2022/09/11 05:39:34;;;;;;;;;;;;;;;;;;4967268;28;19914;-87
2022/09/11 05:42:03;;;;;;;;;;;;;;;;;;5040573;23;21260;-93
2022/09/11 05:44:31;;;;;;;;;;;;;;;;;;4998403;28;19921;-91
2022/09/11 05:46:57;;;;;;;;;;;;;;;;;;4997013;28;20101;-91
2022/09/11 05:49:30;;;;;;;;;;;;;;;;;;4968111;28;19953;-92
2022/09/11 05:51:57;;;;;;;;;;;;;;;;;;5008905;28;19905;-90
2022/09/11 05:54:24;;;;;;;;;;;;;;;;;;4995890;28;19965;-91
2022/09/11 05:56:51;;;;;;;;;;;;;;;;;;4997329;28;19996;-89
2022/09/11 05:59:22;;;;;;;;;;;;;;;;;;5014774;28;19941;-94
2022/09/11 06:01:49;;;;;;;;;;;;;;;;;;5015748;28;19938;-92
2022/09/11 06:04:31;;;;;;;;;;;;;;;;;;5016055;28;19906;-92
2022/09/11 06:06:57;;;;;;;;;;;;;;;;;;4979382;28;19902;-93
2022/09/11 06:09:23;;;;;;;;;;;;;;;;;;4961096;28;19968;-96
2022/09/11 06:11:51;;;;;;;;;;;;;;;;;;4978911;28;19941;-96
2022/09/11 06:14:17;;;;;;;;;;;;;;;;;;4978092;28;19938;-94
2022/09/11 06:16:43;;;;;;;;;;;;;;;;;;4980037;28;19985;-95
2022/09/11 06:19:12;;;;;;;;;;;;;;;;;;4978185;28;19914;-95
2022/09/11 06:21:39;;;;;;;;;;;;;;;;;;4979529;28;19910;-95
2022/09/11 06:24:19;;;;;;;;;;;;;;;;;;4978328;28;19925;-95
2022/09/11 06:26:45;;;;;;;;;;;;;;;;;;4982712;28;19914;-94
2022/09/11 06:29:15;;;;;;;;;;;;;;;;;;4995034;28;19977;-89
2022/09/11 06:31:43;;;;;;;;;;;;;;;;;;4975533;28;19918;-90
2022/09/11 06:34:08;;;;;;;;;;;;;;;;;;4976212;28;20332;-89
2022/09/11 06:36:34;;;;;;;;;;;;;;;;;;4961802;28;19914;-89
2022/09/11 06:39:04;;;;;;;;;;;;;;;;;;4963551;28;19918;-90
2022/09/11 06:41:31;;;;;;;;;;;;;;;;;;4963540;28;20381;-90
2022/09/11 06:44:20;;;;;;;;;;;;;;;;;;4979020;28;19917;-95
2022/09/11 06:46:46;;;;;;;;;;;;;;;;;;4986945;28;20440;-93
2022/09/11 06:49:15;;;;;;;;;;;;;;;;;;4981601;28;19918;-94
2022/09/11 06:52:01;;;;;;;;;;;;;;;;;;4978625;28;19922;-92
2022/09/11 06:54:30;;;;;;;;;;;;;;;;;;4963866;28;19920;-92
2022/09/11 06:57:02;;;;;;;;;;;;;;;;;;4979293;28;19947;-93
2022/09/11 06:59:27;;;;;;;;;;;;;;;;;;4996318;28;19977;-92
2022/09/11 07:01:54;;;;;;;;;;;;;;;;;;4972600;28;19940;-93
2022/09/11 07:04:23;;;;;;;;;;;;;;;;;;4974928;28;20005;-94
2022/09/11 07:06:49;;;;;;;;;;;;;;;;;;4985796;28;19953;-94
2022/09/11 07:09:15;;;;;;;;;;;;;;;;;;4996987;28;20285;-88
2022/09/11 07:11:46;;;;;;;;;;;;;;;;;;4976275;28;19922;-88
2022/09/11 07:14:11;;;;;;;;;;;;;;;;;;4959993;28;20485;-88
2022/09/11 07:16:39;;;;;;;;;;;;;;;;;;4959686;28;20008;-87
2022/09/11 07:19:09;;;;;;;;;;;;;;;;;;4991764;28;20004;-91
2022/09/11 07:21:36;;;;;;;;;;;;;;;;;;4977182;28;19957;-91
2022/09/11 07:24:02;;;;;;;;;;;;;;;;;;4961785;28;19914;-89
2022/09/11 07:26:32;;;;;;;;;;;;;;;;;;4960200;28;19978;-89
2022/09/11 07:29:03;;;;;;;;;;;;;;;;;;4958516;28;20397;-88
2022/09/11 07:31:28;;;;;;;;;;;;;;;;;;4958986;28;20001;-92
2022/09/11 07:33:55;;;;;;;;;;;;;;;;;;4966154;28;19961;-94
2022/09/11 07:36:21;;;;;;;;;;;;;;;;;;4970067;28;19914;-95
2022/09/11 07:38:49;;;;;;;;;;;;;;;;;;4965955;28;19914;-92
2022/09/11 07:41:14;;;;;;;;;;;;;;;;;;4961532;28;19946;-93
2022/09/11 07:43:40;;;;;;;;;;;;;;;;;;4963759;28;19925;-92
2022/09/11 07:46:06;;;;;;;;;;;;;;;;;;4975547;28;19922;-91
2022/09/11 07:48:32;;;;;;;;;;;;;;;;;;4957780;28;19915;-94
2022/09/11 07:51:00;;;;;;;;;;;;;;;;;;4960308;28;20296;-95
2022/09/11 07:53:27;;;;;;;;;;;;;;;;;;4976272;28;19965;-92
2022/09/11 07:55:53;;;;;;;;;;;;;;;;;;4958730;28;19911;-92
2022/09/11 07:58:19;;;;;;;;;;;;;;;;;;4954838;28;20000;-93
2022/09/11 08:00:44;;;;;;;;;;;;;;;;;;4939564;29;19950;-90
2022/09/11 08:03:18;;;;;;;;;;;;;;;;;;4940794;28;19965;-90
2022/09/11 08:05:43;;;;;;;;;;;;;;;;;;4943465;29;20417;-93
2022/09/11 08:08:10;;;;;;;;;;;;;;;;;;4946556;29;19906;-94
2022/09/11 08:10:37;;;;;;;;;;;;;;;;;;4947996;29;20393;-94
2022/09/11 08:13:04;;;;;;;;;;;;;;;;;;4948653;28;19915;-92
2022/09/11 08:15:31;;;;;;;;;;;;;;;;;;4947008;29;19914;-92
2022/09/11 08:17:56;;;;;;;;;;;;;;;;;;4976481;28;20002;-93
2022/09/11 08:20:22;;;;;;;;;;;;;;;;;;4945181;28;20009;-94
2022/09/11 08:22:48;;;;;;;;;;;;;;;;;;4944247;29;19968;-92
2022/09/11 08:25:13;;;;;;;;;;;;;;;;;;4942925;29;19918;-94
2022/09/11 08:27:42;;;;;;;;;;;;;;;;;;4943436;29;20393;-92
2022/09/11 08:30:07;;;;;;;;;;;;;;;;;;4942912;29;19918;-94
2022/09/11 08:32:33;;;;;;;;;;;;;;;;;;4943705;29;19924;-90
2022/09/11 08:34:59;;;;;;;;;;;;;;;;;;4973965;28;19910;-89
2022/09/11 08:37:25;;;;;;;;;;;;;;;;;;4974170;28;19977;-93
2022/09/11 08:39:50;;;;;;;;;;;;;;;;;;4943131;29;19918;-93
2022/09/11 08:42:15;;;;;;;;;;;;;;;;;;4943016;29;19915;-93
2022/09/11 08:44:45;;;;;;;;;;;;;;;;;;4944113;29;19922;-94
2022/09/11 08:47:36;;;;;;;;;;;;;;;;;;4965245;28;19914;-93
2022/09/11 08:50:02;;;;;;;;;;;;;;;;;;4980957;28;19918;-91
2022/09/11 08:52:28;;;;;;;;;;;;;;;;;;4978250;28;19922;-89
2022/09/11 08:54:54;;;;;;;;;;;;;;;;;;4960729;28;19918;-93
2022/09/11 08:57:19;;;;;;;;;;;;;;;;;;4958185;28;19981;-91
2022/09/11 08:59:45;;;;;;;;;;;;;;;;;;4976697;28;19915;-91
2022/09/11 09:02:10;;;;;;;;;;;;;;;;;;4992462;28;20004;-91
2022/09/11 09:04:40;;;;;;;;;;;;;;;;;;4976322;28;20321;-92
2022/09/11 09:07:05;;;;;;;;;;;;;;;;;;4960324;28;19914;-92
2022/09/11 09:09:31;;;;;;;;;;;;;;;;;;4960289;28;20053;-91
2022/09/11 09:11:59;;;;;;;;;;;;;;;;;;4960163;28;20052;-91
2022/09/11 09:14:25;;;;;;;;;;;;;;;;;;4975590;28;19920;-93
2022/09/11 09:16:51;;;;;;;;;;;;;;;;;;4961834;28;20005;-92
2022/09/11 09:19:18;;;;;;;;;;;;;;;;;;4961642;28;19926;-92
2022/09/11 09:21:44;;;;;;;;;;;;;;;;;;4977573;28;19918;-90
2022/09/11 09:24:18;;;;;;;;;;;;;;;;;;4976921;28;19969;-91
2022/09/11 09:26:43;;;;;;;;;;;;;;;;;;4975728;28;20103;-89
2022/09/11 09:29:09;;;;;;;;;;;;;;;;;;4977604;28;20544;-92
2022/09/11 09:31:37;;;;;;;;;;;;;;;;;;4972952;28;20269;-95
2022/09/11 09:34:03;;;;;;;;;;;;;;;;;;4951371;28;19915;-91
2022/09/11 09:36:28;;;;;;;;;;;;;;;;;;4978046;28;19922;-96
2022/09/11 09:38:54;;;;;;;;;;;;;;;;;;4973644;28;20277;-94
2022/09/11 09:41:19;;;;;;;;;;;;;;;;;;4965629;28;19914;-95
2022/09/11 09:43:45;;;;;;;;;;;;;;;;;;4977136;28;19946;-94
2022/09/11 09:46:10;;;;;;;;;;;;;;;;;;4965539;28;19994;-95
2022/09/11 09:48:38;;;;;;;;;;;;;;;;;;4961851;28;20333;-91
2022/09/11 09:51:03;;;;;;;;;;;;;;;;;;4976476;28;20317;-91
2022/09/11 09:53:28;;;;;;;;;;;;;;;;;;4958108;28;19911;-88
2022/09/11 09:55:55;;;;;;;;;;;;;;;;;;4958937;28;20292;-87
2022/09/11 09:58:21;;;;;;;;;;;;;;;;;;4961244;28;19992;-93
2022/09/11 10:00:47;;;;;;;;;;;;;;;;;;4961977;28;19914;-91
2022/09/11 10:03:12;;;;;;;;;;;;;;;;;;4961874;28;20284;-92
2022/09/11 10:05:38;;;;;;;;;;;;;;;;;;4958949;28;20358;-80
2022/09/11 10:08:03;;;;;;;;;;;;;;;;;;4973735;28;19917;-84
2022/09/11 10:10:28;;;;;;;;;;;;;;;;;;4974446;28;19918;-84
2022/09/11 10:12:54;;;;;;;;;;;;;;;;;;4975306;28;19910;-84
2022/09/11 10:15:21;;;;;;;;;;;;;;;;;;4974831;28;20341;-85
2022/09/11 10:17:47;;;;;;;;;;;;;;;;;;4988778;28;19950;-83
2022/09/11 10:20:12;;;;;;;;;;;;;;;;;;4974916;28;20385;-86
2022/09/11 10:22:38;;;;;;;;;;;;;;;;;;4977173;28;19931;-84
2022/09/11 10:25:03;;;;;;;;;;;;;;;;;;4974948;28;20005;-85
2022/09/11 10:27:30;;;;;;;;;;;;;;;;;;4972960;28;20282;-77
2022/09/11 10:29:57;;;;;;;;;;;;;;;;;;4973555;28;19914;-80
2022/09/11 10:32:23;;;;;;;;;;;;;;;;;;4966852;28;19914;-84
2022/09/11 10:34:50;;;;;;;;;;;;;;;;;;4989432;28;20400;-84
2022/09/11 10:37:15;;;;;;;;;;;;;;;;;;4967420;28;19914;-83
2022/09/11 10:39:41;;;;;;;;;;;;;;;;;;4989854;28;20000;-84
2022/09/11 10:42:06;;;;;;;;;;;;;;;;;;4970833;28;20012;-79
2022/09/11 10:44:32;;;;;;;;;;;;;;;;;;4982167;28;19915;-79
2022/09/11 10:46:57;;;;;;;;;;;;;;;;;;4989437;28;19968;-77
2022/09/11 10:49:22;;;;;;;;;;;;;;;;;;4966004;28;19922;-77
2022/09/11 10:51:48;;;;;;;;;;;;;;;;;;4989037;28;19958;-80
2022/09/11 10:54:13;;;;;;;;;;;;;;;;;;4988774;28;19918;-81
2022/09/11 10:56:39;;;;;;;;;;;;;;;;;;4974097;28;19953;-81
2022/09/11 10:59:04;;;;;;;;;;;;;;;;;;4975901;28;19914;-90
2022/09/11 11:01:30;;;;;;;;;;;;;;;;;;4959818;28;19915;-83
2022/09/11 11:03:55;;;;;;;;;;;;;;;;;;4976562;28;20012;-85
2022/09/11 11:06:22;;;;;;;;;;;;;;;;;;4978128;28;20408;-82
2022/09/11 11:08:49;;;;;;;;;;;;;;;;;;4978183;28;19914;-83
2022/09/11 11:11:15;;;;;;;;;;;;;;;;;;4975598;28;19921;-84
2022/09/11 11:13:40;;;;;;;;;;;;;;;;;;4975404;28;20301;-83
2022/09/11 11:16:05;;;;;;;;;;;;;;;;;;4989943;28;19923;-88
2022/09/11 11:18:32;;;;;;;;;;;;;;;;;;4977689;28;19914;-82
2022/09/11 11:20:59;;;;;;;;;;;;;;;;;;4972689;28;19920;-84
2022/09/11 11:23:25;;;;;;;;;;;;;;;;;;4973805;28;19918;-80
2022/09/11 11:25:53;;;;;;;;;;;;;;;;;;5047637;23;19971;-86
2022/09/11 11:28:18;;;;;;;;;;;;;;;;;;4982488;28;19920;-86
2022/09/11 11:30:44;;;;;;;;;;;;;;;;;;5014463;28;20160;-87
2022/09/11 11:33:10;;;;;;;;;;;;;;;;;;4996795;28;20273;-86
2022/09/11 11:35:35;;;;;;;;;;;;;;;;;;4979261;28;20245;-87
2022/09/11 11:38:01;;;;;;;;;;;;;;;;;;4976835;28;20393;-87
2022/09/11 11:40:27;;;;;;;;;;;;;;;;;;4977717;28;19921;-86
2022/09/11 11:43:02;;;;;;;;;;;;;;;;;;4993426;28;19921;-84
2022/09/11 11:45:30;;;;;;;;;;;;;;;;;;4976326;28;19996;-82
2022/09/11 11:47:56;;;;;;;;;;;;;;;;;;4993983;28;20011;-82
2022/09/11 11:50:21;;;;;;;;;;;;;;;;;;4988553;28;19958;-82
2022/09/11 11:52:48;;;;;;;;;;;;;;;;;;4989023;28;19993;-83
2022/09/11 11:55:15;;;;;;;;;;;;;;;;;;4989025;28;19918;-84
2022/09/11 11:57:41;;;;;;;;;;;;;;;;;;4972912;28;19949;-84
2022/09/11 12:00:08;;;;;;;;;;;;;;;;;;4972762;28;19957;-80
2022/09/11 12:02:39;;;;;;;;;;;;;;;;;;4975910;28;19921;-78
2022/09/11 12:05:05;;;;;;;;;;;;;;;;;;4998835;28;19914;-78
2022/09/11 12:07:31;;;;;;;;;;;;;;;;;;4991154;28;19972;-76
2022/09/11 12:09:57;;;;;;;;;;;;;;;;;;4992537;28;19920;-80
2022/09/11 12:12:23;;;;;;;;;;;;;;;;;;4991218;28;19914;-80
2022/09/11 12:14:49;;;;;;;;;;;;;;;;;;4991263;28;19940;-87
2022/09/11 12:17:14;;;;;;;;;;;;;;;;;;4975643;28;19914;-81
2022/09/11 12:19:40;;;;;;;;;;;;;;;;;;4975199;28;19987;-79
2022/09/11 12:22:06;;;;;;;;;;;;;;;;;;4974969;28;19994;-80
2022/09/11 12:24:32;;;;;;;;;;;;;;;;;;4975338;28;19918;-82
2022/09/11 12:26:57;;;;;;;;;;;;;;;;;;4991674;28;19913;-82
2022/09/11 12:29:23;;;;;;;;;;;;;;;;;;4991207;28;20304;-80
2022/09/11 12:31:51;;;;;;;;;;;;;;;;;;4991193;28;19924;-81
2022/09/11 12:34:17;;;;;;;;;;;;;;;;;;4975308;28;19914;-81
2022/09/11 12:36:42;;;;;;;;;;;;;;;;;;4992441;28;19914;-81
2022/09/11 12:39:08;;;;;;;;;;;;;;;;;;4974621;28;20461;-81
2022/09/11 12:41:33;;;;;;;;;;;;;;;;;;5007886;28;19914;-80
2022/09/11 12:43:59;;;;;;;;;;;;;;;;;;4974789;28;19913;-81
2022/09/11 12:46:28;;;;;;;;;;;;;;;;;;4975398;28;19914;-78
2022/09/11 12:48:54;;;;;;;;;;;;;;;;;;4992418;28;19965;-79
2022/09/11 12:51:20;;;;;;;;;;;;;;;;;;4994024;28;20008;-80
2022/09/11 12:53:45;;;;;;;;;;;;;;;;;;4994622;28;20268;-81
2022/09/11 12:56:11;;;;;;;;;;;;;;;;;;4978574;28;19913;-79
2022/09/11 12:58:36;;;;;;;;;;;;;;;;;;5011400;28;19914;-77
2022/09/11 13:01:02;;;;;;;;;;;;;;;;;;4994935;28;20019;-79
2022/09/11 13:03:28;;;;;;;;;;;;;;;;;;4995157;28;20045;-80
2022/09/11 13:05:54;;;;;;;;;;;;;;;;;;4996540;28;19968;-79
2022/09/11 13:08:21;;;;;;;;;;;;;;;;;;4994821;28;19925;-80
2022/09/11 13:10:46;;;;;;;;;;;;;;;;;;4994799;28;20012;-79
2022/09/11 13:13:22;;;;;;;;;;;;;;;;;;4978370;28;19910;-81
2022/09/11 13:15:51;;;;;;;;;;;;;;;;;;4995703;28;19920;-79
2022/09/11 13:18:17;;;;;;;;;;;;;;;;;;4995802;28;19917;-79
2022/09/11 13:20:42;;;;;;;;;;;;;;;;;;4994474;28;19914;-80
2022/09/11 13:23:08;;;;;;;;;;;;;;;;;;4978172;28;20172;-81
2022/09/11 13:25:34;;;;;;;;;;;;;;;;;;4994103;28;19972;-78
2022/09/11 13:28:00;;;;;;;;;;;;;;;;;;4977568;28;19917;-80
2022/09/11 13:30:25;;;;;;;;;;;;;;;;;;4993913;28;19960;-80
2022/09/11 13:32:51;;;;;;;;;;;;;;;;;;4995200;28;19956;-79
2022/09/11 13:35:16;;;;;;;;;;;;;;;;;;5010684;28;19914;-80
2022/09/11 13:37:45;;;;;;;;;;;;;;;;;;5010453;28;19917;-79
2022/09/11 13:40:11;;;;;;;;;;;;;;;;;;4977875;28;19921;-79
2022/09/11 13:42:36;;;;;;;;;;;;;;;;;;4994214;28;19913;-79
2022/09/11 13:45:02;;;;;;;;;;;;;;;;;;4993988;28;19920;-79
2022/09/11 13:47:28;;;;;;;;;;;;;;;;;;4993187;28;19920;-78
2022/09/11 13:49:53;;;;;;;;;;;;;;;;;;4994383;28;19926;-80
2022/09/11 13:52:20;;;;;;;;;;;;;;;;;;4978860;28;19918;-80
2022/09/11 13:54:46;;;;;;;;;;;;;;;;;;4997110;28;19913;-79
2022/09/11 13:57:11;;;;;;;;;;;;;;;;;;4980165;28;19969;-80
2022/09/11 13:59:37;;;;;;;;;;;;;;;;;;4995930;28;19968;-82
2022/09/11 14:02:02;;;;;;;;;;;;;;;;;;4980778;28;19914;-79
2022/09/11 14:04:28;;;;;;;;;;;;;;;;;;4980641;28;19980;-79
2022/09/11 14:06:56;;;;;;;;;;;;;;;;;;4997786;28;19914;-79
2022/09/11 14:09:22;;;;;;;;;;;;;;;;;;4961834;28;20009;-80
2022/09/11 14:11:48;;;;;;;;;;;;;;;;;;4961505;28;20051;-80
2022/09/11 14:14:14;;;;;;;;;;;;;;;;;;4993324;28;19968;-80
2022/09/11 14:16:40;;;;;;;;;;;;;;;;;;4960804;28;19925;-79
2022/09/11 14:19:06;;;;;;;;;;;;;;;;;;4973330;28;20384;-81
2022/09/11 14:21:31;;;;;;;;;;;;;;;;;;4973838;28;19914;-79
2022/09/11 14:23:57;;;;;;;;;;;;;;;;;;4989832;28;19918;-80
2022/09/11 14:26:23;;;;;;;;;;;;;;;;;;4989834;28;19918;-83
2022/09/11 14:28:56;;;;;;;;;;;;;;;;;;4974779;28;19910;-81
2022/09/11 14:31:22;;;;;;;;;;;;;;;;;;4992866;28;20017;-81
2022/09/11 14:33:47;;;;;;;;;;;;;;;;;;4993014;28;20008;-80
2022/09/11 14:36:13;;;;;;;;;;;;;;;;;;4983948;28;19964;-80
2022/09/11 14:38:39;;;;;;;;;;;;;;;;;;4976705;28;20401;-80
2022/09/11 14:41:05;;;;;;;;;;;;;;;;;;4994049;28;20448;-81
2022/09/11 14:43:31;;;;;;;;;;;;;;;;;;4976889;28;19917;-82
2022/09/11 14:45:57;;;;;;;;;;;;;;;;;;5009105;28;19921;-82
2022/09/11 14:48:22;;;;;;;;;;;;;;;;;;4976425;28;19914;-80
2022/09/11 14:50:51;;;;;;;;;;;;;;;;;;4975844;28;19921;-80
2022/09/11 14:53:17;;;;;;;;;;;;;;;;;;5008897;28;19914;-80
2022/09/11 14:55:43;;;;;;;;;;;;;;;;;;4976157;28;20017;-79
2022/09/11 14:58:08;;;;;;;;;;;;;;;;;;4976322;28;19944;-79
2022/09/11 15:00:34;;;;;;;;;;;;;;;;;;4992231;28;20314;-80
2022/09/11 15:03:02;;;;;;;;;;;;;;;;;;5008625;28;19924;-78
2022/09/11 15:05:28;;;;;;;;;;;;;;;;;;4976323;28;19913;-79
2022/09/11 15:07:54;;;;;;;;;;;;;;;;;;4991914;28;19932;-80
2022/09/11 15:10:19;;;;;;;;;;;;;;;;;;4976028;28;19921;-80
2022/09/11 15:12:46;;;;;;;;;;;;;;;;;;4975685;28;19914;-80
2022/09/11 15:15:14;;;;;;;;;;;;;;;;;;4976295;28;19913;-79
2022/09/11 15:17:40;;;;;;;;;;;;;;;;;;4976156;28;19924;-78
2022/09/11 15:20:07;;;;;;;;;;;;;;;;;;4993192;28;19968;-80
2022/09/11 15:22:34;;;;;;;;;;;;;;;;;;4993207;28;19914;-81
2022/09/11 15:25:00;;;;;;;;;;;;;;;;;;5008325;28;20008;-81
2022/09/11 15:27:27;;;;;;;;;;;;;;;;;;4975717;28;20429;-80
2022/09/11 15:29:53;;;;;;;;;;;;;;;;;;4976107;28;19921;-79
2022/09/11 15:32:20;;;;;;;;;;;;;;;;;;4959857;28;19910;-79
2022/09/11 15:34:46;;;;;;;;;;;;;;;;;;4959775;28;20436;-81
2022/09/11 15:37:12;;;;;;;;;;;;;;;;;;4959874;28;19960;-81
2022/09/11 15:39:38;;;;;;;;;;;;;;;;;;4972400;28;19945;-80
2022/09/11 15:42:05;;;;;;;;;;;;;;;;;;4956541;28;19953;-81
2022/09/11 15:44:30;;;;;;;;;;;;;;;;;;4972505;28;19914;-81
2022/09/11 15:46:56;;;;;;;;;;;;;;;;;;4972577;28;20266;-81
2022/09/11 15:49:22;;;;;;;;;;;;;;;;;;4956458;28;20036;-79
2022/09/11 15:51:47;;;;;;;;;;;;;;;;;;4972484;28;19919;-80
2022/09/11 15:54:14;;;;;;;;;;;;;;;;;;4956000;28;20401;-80
2022/09/11 15:56:39;;;;;;;;;;;;;;;;;;4955913;28;19918;-80
2022/09/11 15:59:05;;;;;;;;;;;;;;;;;;4971947;28;20377;-79
2022/09/11 16:01:34;;;;;;;;;;;;;;;;;;4971996;28;20341;-80
2022/09/11 16:03:59;;;;;;;;;;;;;;;;;;4972612;28;19968;-81
2022/09/11 16:06:25;;;;;;;;;;;;;;;;;;4957591;28;19914;-80
2022/09/11 16:08:51;;;;;;;;;;;;;;;;;;4972391;28;20004;-82
2022/09/11 16:11:16;;;;;;;;;;;;;;;;;;4983651;28;20457;-81
2022/09/11 16:13:42;;;;;;;;;;;;;;;;;;4975247;28;19922;-80
2022/09/11 16:16:07;;;;;;;;;;;;;;;;;;4975126;28;19964;-80
2022/09/11 16:18:33;;;;;;;;;;;;;;;;;;4991184;28;19921;-79
2022/09/11 16:20:58;;;;;;;;;;;;;;;;;;5008550;28;20369;-80
2022/09/11 16:23:24;;;;;;;;;;;;;;;;;;4975382;28;19960;-80
2022/09/11 16:25:50;;;;;;;;;;;;;;;;;;4993235;28;19922;-80
2022/09/11 16:28:16;;;;;;;;;;;;;;;;;;4975189;28;20434;-80
2022/09/11 16:30:41;;;;;;;;;;;;;;;;;;4992038;28;19937;-81
2022/09/11 16:33:06;;;;;;;;;;;;;;;;;;4992191;28;20034;-80
2022/09/11 16:35:33;;;;;;;;;;;;;;;;;;4991829;28;19961;-79
2022/09/11 16:37:59;;;;;;;;;;;;;;;;;;4991932;28;20012;-80
2022/09/11 16:40:25;;;;;;;;;;;;;;;;;;4991905;28;19914;-81
2022/09/11 16:42:50;;;;;;;;;;;;;;;;;;4991755;28;19997;-80
2022/09/11 16:45:16;;;;;;;;;;;;;;;;;;4999812;28;19952;-81